createdAt,value
2018-06-01T00:00:19.614Z,0.00
2018-06-01T00:01:19.806Z,0.00
2018-06-01T00:02:19.979Z,0.00
2018-06-01T00:03:20.156Z,0.00
2018-06-01T00:04:20.360Z,0.00
2018-06-01T00:05:20.537Z,0.00
2018-06-01T00:06:20.720Z,0.00
2018-06-01T00:07:20.907Z,0.00
2018-06-01T00:08:21.087Z,0.00
2018-06-01T00:09:21.266Z,0.00
2018-06-01T00:10:21.527Z,0.00
2018-06-01T00:11:21.639Z,0.00
2018-06-01T00:12:21.821Z,0.00
2018-06-01T00:13:22.011Z,0.00
2018-06-01T00:14:22.200Z,0.00
2018-06-01T00:15:22.386Z,0.00
2018-06-01T00:16:22.551Z,0.00
2018-06-01T00:17:22.765Z,0.00
2018-06-01T00:18:22.915Z,0.00
2018-06-01T00:19:23.097Z,0.00
2018-06-01T00:20:23.285Z,0.00
2018-06-01T00:21:23.479Z,0.00
2018-06-01T00:22:23.651Z,0.00
2018-06-01T00:23:23.842Z,0.00
2018-06-01T00:24:24.040Z,0.00
2018-06-01T00:25:24.251Z,0.00
2018-06-01T00:26:24.398Z,0.00
2018-06-01T00:27:24.583Z,0.00
2018-06-01T00:28:24.764Z,0.00
2018-06-01T00:29:24.944Z,0.00
2018-06-01T00:30:25.117Z,0.00
2018-06-01T00:31:25.304Z,0.00
2018-06-01T00:32:25.470Z,0.00
2018-06-01T00:33:25.676Z,0.00
2018-06-01T00:34:25.846Z,0.00
2018-06-01T00:35:26.032Z,0.00
2018-06-01T00:36:26.215Z,0.00
2018-06-01T00:37:26.398Z,0.00
2018-06-01T00:38:26.837Z,0.00
2018-06-01T00:39:26.771Z,0.00
2018-06-01T00:40:26.950Z,0.00
2018-06-01T00:41:27.129Z,0.00
2018-06-01T00:42:27.318Z,0.00
2018-06-01T00:43:27.499Z,0.00
2018-06-01T00:44:27.693Z,0.00
2018-06-01T00:45:27.881Z,0.00
2018-06-01T00:46:28.049Z,0.00
2018-06-01T00:47:28.233Z,0.00
2018-06-01T00:48:28.417Z,0.00
2018-06-01T00:49:28.593Z,0.00
2018-06-01T00:50:28.779Z,0.00
2018-06-01T00:51:28.968Z,0.00
2018-06-01T00:52:29.146Z,0.00
2018-06-01T00:53:29.330Z,0.00
2018-06-01T00:54:29.515Z,0.00
2018-06-01T00:55:29.701Z,0.00
2018-06-01T00:56:29.889Z,0.00
2018-06-01T00:57:30.075Z,0.00
2018-06-01T00:58:30.250Z,0.00
2018-06-01T00:59:30.418Z,0.00
2018-06-01T01:00:30.599Z,0.00
2018-06-01T01:01:30.782Z,0.00
2018-06-01T01:02:30.958Z,0.00
2018-06-01T01:03:31.146Z,0.00
2018-06-01T01:04:31.327Z,0.00
2018-06-01T01:05:31.525Z,0.00
2018-06-01T01:06:31.697Z,0.00
2018-06-01T01:07:31.875Z,0.00
2018-06-01T01:08:32.048Z,0.00
2018-06-01T01:09:32.233Z,0.00
2018-06-01T01:10:32.412Z,0.00
2018-06-01T01:11:32.605Z,0.00
2018-06-01T01:12:33.017Z,0.00
2018-06-01T01:13:32.982Z,0.00
2018-06-01T01:14:33.168Z,0.00
2018-06-01T01:15:33.352Z,0.00
2018-06-01T01:16:33.547Z,0.00
2018-06-01T01:17:33.759Z,0.00
2018-06-01T01:18:33.914Z,0.00
2018-06-01T01:19:34.342Z,0.00
2018-06-01T01:20:34.299Z,0.00
2018-06-01T01:21:34.464Z,0.00
2018-06-01T01:22:34.643Z,0.00
2018-06-01T01:23:34.829Z,0.00
2018-06-01T01:24:35.012Z,0.00
2018-06-01T01:25:35.208Z,0.00
2018-06-01T01:26:35.377Z,0.00
2018-06-01T01:27:35.563Z,0.00
2018-06-01T01:28:35.754Z,0.00
2018-06-01T01:29:35.927Z,0.00
2018-06-01T01:30:36.112Z,0.00
2018-06-01T01:31:36.302Z,0.00
2018-06-01T01:32:36.480Z,0.00
2018-06-01T01:33:36.661Z,0.00
2018-06-01T01:34:36.845Z,0.00
2018-06-01T01:35:37.021Z,0.00
2018-06-01T01:36:37.211Z,0.00
2018-06-01T01:37:37.384Z,0.00
2018-06-01T01:38:37.573Z,0.00
2018-06-01T01:39:37.750Z,0.00
2018-06-01T01:40:37.934Z,0.00
2018-06-01T01:41:38.139Z,0.00
2018-06-01T01:42:38.293Z,0.00
2018-06-01T01:43:38.466Z,0.00
2018-06-01T01:44:38.648Z,0.00
2018-06-01T01:45:38.834Z,0.00
2018-06-01T01:46:39.020Z,0.00
2018-06-01T01:47:39.202Z,0.00
2018-06-01T01:48:39.386Z,0.00
2018-06-01T01:49:39.571Z,0.00
2018-06-01T01:50:39.758Z,0.00
2018-06-01T01:51:39.940Z,0.00
2018-06-01T01:52:40.121Z,0.00
2018-06-01T01:53:40.309Z,0.00
2018-06-01T01:54:40.496Z,0.00
2018-06-01T01:55:40.666Z,0.00
2018-06-01T01:56:40.847Z,0.00
2018-06-01T01:57:41.033Z,0.00
2018-06-01T01:58:41.220Z,0.00
2018-06-01T01:59:41.407Z,0.00
2018-06-01T02:00:41.585Z,0.00
2018-06-01T02:01:41.769Z,0.00
2018-06-01T02:02:41.953Z,0.00
2018-06-01T02:03:42.133Z,0.00
2018-06-01T02:04:42.321Z,0.00
2018-06-01T02:05:42.502Z,0.00
2018-06-01T02:06:42.683Z,0.00
2018-06-01T02:07:42.864Z,0.00
2018-06-01T02:08:43.048Z,0.00
2018-06-01T02:09:43.237Z,0.00
2018-06-01T02:10:43.419Z,0.00
2018-06-01T02:11:43.598Z,0.00
2018-06-01T02:12:43.789Z,0.00
2018-06-01T02:13:43.964Z,0.00
2018-06-01T02:14:44.146Z,0.00
2018-06-01T02:15:44.334Z,0.00
2018-06-01T02:16:44.521Z,0.00
2018-06-01T02:17:44.705Z,0.00
2018-06-01T02:18:44.891Z,0.00
2018-06-01T02:19:45.080Z,0.00
2018-06-01T02:20:45.259Z,0.00
2018-06-01T02:21:45.443Z,0.00
2018-06-01T02:22:45.629Z,0.00
2018-06-01T02:23:45.815Z,0.00
2018-06-01T02:24:46.249Z,0.00
2018-06-01T02:25:46.178Z,0.00
2018-06-01T02:26:46.360Z,0.00
2018-06-01T02:27:46.542Z,0.00
2018-06-01T02:28:46.724Z,0.00
2018-06-01T02:29:46.911Z,0.00
2018-06-01T02:30:47.093Z,0.00
2018-06-01T02:31:47.283Z,0.00
2018-06-01T02:32:47.466Z,0.00
2018-06-01T02:33:47.634Z,0.00
2018-06-01T02:34:47.821Z,0.00
2018-06-01T02:35:48.010Z,0.00
2018-06-01T02:36:48.204Z,0.00
2018-06-01T02:37:48.374Z,0.00
2018-06-01T02:38:48.559Z,0.00
2018-06-01T02:39:48.736Z,0.00
2018-06-01T02:40:48.933Z,0.00
2018-06-01T02:41:49.111Z,0.00
2018-06-01T02:42:49.301Z,0.00
2018-06-01T02:43:49.481Z,0.00
2018-06-01T02:44:49.666Z,0.00
2018-06-01T02:45:49.848Z,0.00
2018-06-01T02:46:50.037Z,0.00
2018-06-01T02:47:50.216Z,0.00
2018-06-01T02:48:50.400Z,0.00
2018-06-01T02:49:50.584Z,0.00
2018-06-01T02:50:50.771Z,0.00
2018-06-01T02:51:50.966Z,0.00
2018-06-01T02:52:51.138Z,0.00
2018-06-01T02:53:51.319Z,0.00
2018-06-01T02:54:51.506Z,0.00
2018-06-01T02:55:51.691Z,0.00
2018-06-01T02:56:51.866Z,0.00
2018-06-01T02:57:52.052Z,0.00
2018-06-01T02:58:52.233Z,0.00
2018-06-01T02:59:52.420Z,0.00
2018-06-01T03:00:52.607Z,0.00
2018-06-01T03:01:52.790Z,0.00
2018-06-01T03:02:52.965Z,0.00
2018-06-01T03:03:53.150Z,0.00
2018-06-01T03:04:53.338Z,0.00
2018-06-01T03:05:53.517Z,0.00
2018-06-01T03:06:53.712Z,0.00
2018-06-01T03:07:53.892Z,0.00
2018-06-01T03:08:54.072Z,0.00
2018-06-01T03:09:54.263Z,0.00
2018-06-01T03:10:54.456Z,0.00
2018-06-01T03:11:54.637Z,0.00
2018-06-01T03:12:54.830Z,0.00
2018-06-01T03:13:55.031Z,0.00
2018-06-01T03:14:55.187Z,0.00
2018-06-01T03:15:55.372Z,0.00
2018-06-01T03:16:55.564Z,0.00
2018-06-01T03:17:55.739Z,0.00
2018-06-01T03:18:55.917Z,0.00
2018-06-01T03:19:56.101Z,0.00
2018-06-01T03:20:56.286Z,0.00
2018-06-01T03:21:56.464Z,0.00
2018-06-01T03:23:56.837Z,0.00
2018-06-01T03:24:57.023Z,0.00
2018-06-01T03:25:57.203Z,0.00
2018-06-01T03:26:57.380Z,0.00
2018-06-01T03:27:57.570Z,0.00
2018-06-01T03:28:57.748Z,0.00
2018-06-01T03:29:57.934Z,0.00
2018-06-01T03:30:58.125Z,0.00
2018-06-01T03:31:58.313Z,0.00
2018-06-01T03:32:58.483Z,0.00
2018-06-01T03:33:58.672Z,0.00
2018-06-01T03:34:58.854Z,0.00
2018-06-01T03:35:59.038Z,0.00
2018-06-01T03:36:59.589Z,0.00
2018-06-01T03:37:59.416Z,0.00
2018-06-01T03:38:59.591Z,5.63
2018-06-01T03:39:59.766Z,5.63
2018-06-01T03:40:59.952Z,5.63
2018-06-01T03:42:00.138Z,5.63
2018-06-01T03:43:00.324Z,5.63
2018-06-01T03:44:00.508Z,11.25
2018-06-01T03:45:00.703Z,11.25
2018-06-01T03:46:00.882Z,11.25
2018-06-01T03:47:01.061Z,16.88
2018-06-01T03:48:01.244Z,16.88
2018-06-01T03:49:01.428Z,22.50
2018-06-01T03:50:01.611Z,22.50
2018-06-01T03:51:01.801Z,28.13
2018-06-01T03:52:01.978Z,33.75
2018-06-01T03:53:02.163Z,33.75
2018-06-01T03:54:02.357Z,39.38
2018-06-01T03:55:02.526Z,45.00
2018-06-01T03:56:02.715Z,56.25
2018-06-01T03:57:02.896Z,61.88
2018-06-01T03:58:03.083Z,67.50
2018-06-01T03:59:03.263Z,73.13
2018-06-01T04:00:03.450Z,84.38
2018-06-01T04:01:03.639Z,95.63
2018-06-01T04:02:03.818Z,101.25
2018-06-01T04:03:03.997Z,112.50
2018-06-01T04:04:04.185Z,123.75
2018-06-01T04:05:04.367Z,140.63
2018-06-01T04:06:04.548Z,151.88
2018-06-01T04:07:04.741Z,157.50
2018-06-01T04:08:04.916Z,163.13
2018-06-01T04:09:05.095Z,168.75
2018-06-01T04:10:05.283Z,180.00
2018-06-01T04:11:05.468Z,185.63
2018-06-01T04:12:05.653Z,191.25
2018-06-01T04:13:05.838Z,196.88
2018-06-01T04:14:06.017Z,208.13
2018-06-01T04:15:06.204Z,225.00
2018-06-01T04:16:06.384Z,241.88
2018-06-01T04:17:06.563Z,298.13
2018-06-01T04:18:07.027Z,365.63
2018-06-01T04:19:06.938Z,433.13
2018-06-01T04:20:07.122Z,472.50
2018-06-01T04:21:07.306Z,506.25
2018-06-01T04:22:07.494Z,601.88
2018-06-01T04:23:07.674Z,781.88
2018-06-01T04:24:07.855Z,967.50
2018-06-01T04:25:08.043Z,585.00
2018-06-01T04:26:08.227Z,410.63
2018-06-01T04:27:08.410Z,337.50
2018-06-01T04:28:08.628Z,281.25
2018-06-01T04:29:08.777Z,292.50
2018-06-01T04:30:08.966Z,410.63
2018-06-01T04:31:09.139Z,320.63
2018-06-01T04:32:09.323Z,286.88
2018-06-01T04:33:09.527Z,275.63
2018-06-01T04:34:09.705Z,281.25
2018-06-01T04:35:09.890Z,309.38
2018-06-01T04:36:10.083Z,315.00
2018-06-01T04:37:10.268Z,641.25
2018-06-01T04:38:10.442Z,860.63
2018-06-01T04:39:10.625Z,646.88
2018-06-01T04:40:10.813Z,483.75
2018-06-01T04:41:11.005Z,1068.75
2018-06-01T04:42:11.184Z,405.00
2018-06-01T04:43:11.363Z,714.38
2018-06-01T04:44:11.552Z,568.13
2018-06-01T04:45:11.740Z,472.50
2018-06-01T04:46:11.922Z,658.13
2018-06-01T04:47:12.117Z,1203.75
2018-06-01T04:48:12.285Z,1333.13
2018-06-01T04:49:12.754Z,1428.75
2018-06-01T04:50:12.657Z,1710.00
2018-06-01T04:51:12.852Z,1811.25
2018-06-01T04:52:13.030Z,1906.88
2018-06-01T04:53:13.214Z,1642.50
2018-06-01T04:54:13.401Z,781.88
2018-06-01T04:55:13.591Z,540.00
2018-06-01T04:56:13.856Z,950.63
2018-06-01T04:57:13.954Z,1946.25
2018-06-01T04:58:14.138Z,2520.00
2018-06-01T04:59:14.332Z,2587.50
2018-06-01T05:00:14.512Z,2475.00
2018-06-01T05:01:14.693Z,2452.50
2018-06-01T05:02:14.881Z,2463.75
2018-06-01T05:03:15.071Z,2576.25
2018-06-01T05:04:15.251Z,2491.88
2018-06-01T05:05:15.445Z,2548.13
2018-06-01T05:06:15.628Z,1940.63
2018-06-01T05:07:15.817Z,725.63
2018-06-01T05:08:15.996Z,669.38
2018-06-01T05:09:16.185Z,545.63
2018-06-01T05:10:16.373Z,495.00
2018-06-01T05:11:16.571Z,405.00
2018-06-01T05:12:16.747Z,365.63
2018-06-01T05:13:16.941Z,343.13
2018-06-01T05:14:17.124Z,292.50
2018-06-01T05:15:17.315Z,258.75
2018-06-01T05:16:17.494Z,236.25
2018-06-01T05:17:17.686Z,225.00
2018-06-01T05:18:17.875Z,219.38
2018-06-01T05:19:18.069Z,219.38
2018-06-01T05:20:18.250Z,208.13
2018-06-01T05:21:18.438Z,202.50
2018-06-01T05:22:18.660Z,196.88
2018-06-01T05:23:18.807Z,196.88
2018-06-01T05:24:18.993Z,208.13
2018-06-01T05:25:19.182Z,219.38
2018-06-01T05:26:19.375Z,236.25
2018-06-01T05:27:19.557Z,258.75
2018-06-01T05:28:19.743Z,286.88
2018-06-01T05:29:19.924Z,309.38
2018-06-01T05:30:20.117Z,354.38
2018-06-01T05:31:20.295Z,405.00
2018-06-01T05:32:20.480Z,517.50
2018-06-01T05:33:20.667Z,905.63
2018-06-01T05:34:20.866Z,579.38
2018-06-01T05:35:21.064Z,703.13
2018-06-01T05:36:21.223Z,860.63
2018-06-01T05:37:21.407Z,815.63
2018-06-01T05:38:21.597Z,1147.50
2018-06-01T05:39:21.780Z,1625.63
2018-06-01T05:40:21.964Z,1485.00
2018-06-01T05:41:22.158Z,1327.50
2018-06-01T05:42:22.355Z,826.88
2018-06-01T05:43:22.526Z,742.50
2018-06-01T05:44:22.720Z,736.88
2018-06-01T05:45:22.899Z,675.00
2018-06-01T05:46:23.080Z,945.00
2018-06-01T05:47:23.320Z,1372.50
2018-06-01T05:48:23.459Z,703.13
2018-06-01T05:49:23.643Z,675.00
2018-06-01T05:50:23.828Z,680.63
2018-06-01T05:51:24.013Z,596.25
2018-06-01T05:52:24.209Z,523.13
2018-06-01T05:53:24.388Z,618.75
2018-06-01T05:54:24.617Z,618.75
2018-06-01T05:55:24.756Z,748.13
2018-06-01T05:56:25.135Z,1018.13
2018-06-01T05:57:25.222Z,1518.75
2018-06-01T05:58:25.412Z,2508.75
2018-06-01T05:59:27.351Z,1434.38
2018-06-01T06:00:25.796Z,1822.50
2018-06-01T06:01:25.984Z,1923.75
2018-06-01T06:02:26.171Z,1440.00
2018-06-01T06:03:26.350Z,2446.88
2018-06-01T06:04:27.132Z,3183.75
2018-06-01T06:05:26.719Z,1996.88
2018-06-01T06:06:26.900Z,1338.75
2018-06-01T06:07:27.088Z,2019.38
2018-06-01T06:08:27.273Z,3481.88
2018-06-01T06:09:27.455Z,2840.63
2018-06-01T06:10:27.645Z,2559.38
2018-06-01T06:11:27.831Z,2188.13
2018-06-01T06:12:28.020Z,2840.63
2018-06-01T06:13:28.219Z,3465.00
2018-06-01T06:14:28.389Z,3555.00
2018-06-01T06:15:28.576Z,888.75
2018-06-01T06:16:28.771Z,1805.63
2018-06-01T06:17:28.951Z,697.50
2018-06-01T06:18:29.146Z,663.75
2018-06-01T06:19:29.330Z,410.63
2018-06-01T06:20:29.518Z,365.63
2018-06-01T06:21:29.702Z,371.25
2018-06-01T06:22:29.897Z,523.13
2018-06-01T06:23:30.075Z,495.00
2018-06-01T06:24:30.262Z,371.25
2018-06-01T06:25:30.433Z,337.50
2018-06-01T06:26:30.633Z,264.38
2018-06-01T06:27:30.813Z,247.50
2018-06-01T06:28:31.003Z,270.00
2018-06-01T06:29:31.180Z,292.50
2018-06-01T06:30:31.369Z,331.88
2018-06-01T06:31:31.566Z,264.38
2018-06-01T06:32:31.761Z,213.75
2018-06-01T06:33:31.939Z,180.00
2018-06-01T06:34:32.134Z,163.13
2018-06-01T06:35:32.306Z,163.13
2018-06-01T06:36:32.492Z,168.75
2018-06-01T06:37:32.677Z,168.75
2018-06-01T06:38:32.871Z,157.50
2018-06-01T06:39:33.051Z,151.88
2018-06-01T06:40:33.238Z,140.63
2018-06-01T06:41:33.424Z,135.00
2018-06-01T06:42:33.606Z,157.50
2018-06-01T06:43:33.794Z,208.13
2018-06-01T06:44:33.979Z,258.75
2018-06-01T06:45:34.164Z,500.63
2018-06-01T06:46:34.357Z,630.00
2018-06-01T06:47:34.777Z,2671.88
2018-06-01T06:48:34.729Z,1698.75
2018-06-01T06:49:34.906Z,905.63
2018-06-01T06:50:35.093Z,1310.63
2018-06-01T06:51:35.282Z,815.63
2018-06-01T06:52:35.462Z,568.13
2018-06-01T06:53:35.650Z,478.13
2018-06-01T06:54:35.834Z,393.75
2018-06-01T06:55:36.028Z,354.38
2018-06-01T06:56:36.205Z,348.75
2018-06-01T06:57:36.390Z,309.38
2018-06-01T06:58:36.579Z,275.63
2018-06-01T06:59:36.779Z,253.13
2018-06-01T07:00:36.946Z,241.88
2018-06-01T07:01:37.136Z,241.88
2018-06-01T07:02:37.375Z,247.50
2018-06-01T07:03:37.507Z,253.13
2018-06-01T07:04:37.692Z,253.13
2018-06-01T07:05:37.878Z,236.25
2018-06-01T07:06:38.065Z,230.63
2018-06-01T07:07:38.254Z,241.88
2018-06-01T07:08:38.436Z,264.38
2018-06-01T07:09:38.615Z,275.63
2018-06-01T07:10:38.853Z,264.38
2018-06-01T07:11:38.978Z,230.63
2018-06-01T07:12:39.173Z,202.50
2018-06-01T07:13:39.351Z,185.63
2018-06-01T07:14:39.542Z,180.00
2018-06-01T07:15:39.727Z,168.75
2018-06-01T07:16:39.903Z,163.13
2018-06-01T07:17:40.092Z,157.50
2018-06-01T07:18:40.276Z,146.25
2018-06-01T07:19:40.467Z,146.25
2018-06-01T07:20:40.640Z,151.88
2018-06-01T07:21:40.816Z,157.50
2018-06-01T07:22:41.006Z,151.88
2018-06-01T07:23:41.175Z,146.25
2018-06-01T07:24:41.361Z,146.25
2018-06-01T07:25:41.552Z,140.63
2018-06-01T07:26:41.727Z,146.25
2018-06-01T07:27:41.980Z,168.75
2018-06-01T07:28:42.099Z,185.63
2018-06-01T07:29:42.283Z,208.13
2018-06-01T07:30:42.469Z,219.38
2018-06-01T07:31:42.662Z,230.63
2018-06-01T07:32:42.836Z,258.75
2018-06-01T07:33:43.023Z,292.50
2018-06-01T07:34:43.211Z,320.63
2018-06-01T07:35:43.390Z,337.50
2018-06-01T07:36:43.574Z,337.50
2018-06-01T07:37:43.765Z,320.63
2018-06-01T07:38:44.010Z,292.50
2018-06-01T07:39:44.129Z,236.25
2018-06-01T07:40:44.315Z,202.50
2018-06-01T07:41:44.514Z,196.88
2018-06-01T07:42:44.936Z,185.63
2018-06-01T07:43:44.872Z,185.63
2018-06-01T07:44:45.060Z,191.25
2018-06-01T07:45:45.242Z,208.13
2018-06-01T07:46:45.431Z,225.00
2018-06-01T07:47:45.613Z,230.63
2018-06-01T07:48:45.796Z,230.63
2018-06-01T07:49:45.993Z,230.63
2018-06-01T07:50:46.164Z,225.00
2018-06-01T07:51:46.355Z,202.50
2018-06-01T07:52:46.538Z,196.88
2018-06-01T07:53:46.723Z,191.25
2018-06-01T07:54:46.903Z,191.25
2018-06-01T07:55:47.089Z,196.88
2018-06-01T07:56:47.266Z,196.88
2018-06-01T07:57:47.445Z,196.88
2018-06-01T07:58:47.636Z,202.50
2018-06-01T07:59:47.817Z,213.75
2018-06-01T08:00:48.008Z,219.38
2018-06-01T08:01:48.221Z,208.13
2018-06-01T08:02:48.388Z,208.13
2018-06-01T08:03:48.561Z,213.75
2018-06-01T08:04:48.746Z,213.75
2018-06-01T08:05:48.937Z,213.75
2018-06-01T08:06:49.116Z,219.38
2018-06-01T08:07:49.320Z,225.00
2018-06-01T08:08:49.494Z,241.88
2018-06-01T08:09:49.677Z,247.50
2018-06-01T08:10:49.870Z,253.13
2018-06-01T08:11:50.054Z,253.13
2018-06-01T08:12:50.240Z,258.75
2018-06-01T08:13:50.664Z,258.75
2018-06-01T08:14:50.607Z,258.75
2018-06-01T08:15:50.795Z,270.00
2018-06-01T08:16:50.993Z,292.50
2018-06-01T08:17:51.183Z,320.63
2018-06-01T08:18:51.354Z,354.38
2018-06-01T08:19:51.545Z,388.13
2018-06-01T08:20:51.735Z,360.00
2018-06-01T08:21:51.907Z,360.00
2018-06-01T08:22:52.097Z,343.13
2018-06-01T08:23:52.286Z,360.00
2018-06-01T08:24:52.475Z,382.50
2018-06-01T08:25:52.655Z,399.38
2018-06-01T08:26:52.872Z,399.38
2018-06-01T08:27:53.024Z,393.75
2018-06-01T08:28:53.199Z,399.38
2018-06-01T08:29:53.374Z,410.63
2018-06-01T08:30:53.560Z,393.75
2018-06-01T08:31:53.749Z,354.38
2018-06-01T08:32:53.946Z,320.63
2018-06-01T08:33:54.124Z,315.00
2018-06-01T08:34:54.314Z,292.50
2018-06-01T08:35:54.488Z,275.63
2018-06-01T08:36:54.683Z,270.00
2018-06-01T08:38:55.040Z,303.75
2018-06-01T08:39:55.230Z,348.75
2018-06-01T08:40:55.410Z,371.25
2018-06-01T08:41:55.612Z,354.38
2018-06-01T08:42:55.818Z,337.50
2018-06-01T08:43:56.001Z,360.00
2018-06-01T08:44:56.184Z,427.50
2018-06-01T08:45:56.368Z,483.75
2018-06-01T08:46:56.549Z,506.25
2018-06-01T08:47:56.744Z,478.13
2018-06-01T08:48:56.941Z,444.38
2018-06-01T08:49:57.180Z,427.50
2018-06-01T08:50:57.228Z,405.00
2018-06-01T08:51:57.418Z,393.75
2018-06-01T08:52:57.599Z,371.25
2018-06-01T08:53:57.783Z,337.50
2018-06-01T08:54:58.072Z,320.63
2018-06-01T08:55:58.157Z,303.75
2018-06-01T08:56:58.402Z,292.50
2018-06-01T08:57:58.587Z,298.13
2018-06-01T08:58:58.856Z,303.75
2018-06-01T08:59:58.955Z,292.50
2018-06-01T09:00:59.135Z,292.50
2018-06-01T09:01:59.323Z,298.13
2018-06-01T09:02:59.511Z,303.75
2018-06-01T09:03:59.690Z,326.25
2018-06-01T09:04:59.898Z,365.63
2018-06-01T09:06:00.062Z,382.50
2018-06-01T09:07:00.246Z,365.63
2018-06-01T09:08:00.428Z,348.75
2018-06-01T09:09:00.867Z,343.13
2018-06-01T09:10:00.809Z,331.88
2018-06-01T09:11:00.980Z,315.00
2018-06-01T09:12:01.167Z,320.63
2018-06-01T09:13:01.376Z,343.13
2018-06-01T09:14:01.554Z,376.88
2018-06-01T09:16:01.948Z,354.38
2018-06-01T09:17:02.107Z,343.13
2018-06-01T09:18:02.293Z,343.13
2018-06-01T09:19:02.488Z,337.50
2018-06-01T09:20:02.665Z,337.50
2018-06-01T09:21:02.884Z,354.38
2018-06-01T09:22:03.032Z,376.88
2018-06-01T09:23:03.221Z,405.00
2018-06-01T09:24:03.408Z,421.88
2018-06-01T09:25:03.584Z,399.38
2018-06-01T09:26:03.791Z,371.25
2018-06-01T09:27:03.974Z,348.75
2018-06-01T09:28:04.161Z,354.38
2018-06-01T09:29:04.348Z,371.25
2018-06-01T09:30:04.541Z,399.38
2018-06-01T09:31:04.717Z,410.63
2018-06-01T09:32:04.908Z,388.13
2018-06-01T09:33:05.093Z,376.88
2018-06-01T09:34:05.276Z,371.25
2018-06-01T09:35:05.463Z,371.25
2018-06-01T09:36:05.641Z,354.38
2018-06-01T09:37:05.834Z,343.13
2018-06-01T09:38:06.010Z,337.50
2018-06-01T09:39:06.199Z,337.50
2018-06-01T09:40:06.391Z,348.75
2018-06-01T09:41:06.583Z,360.00
2018-06-01T09:42:06.759Z,371.25
2018-06-01T09:43:06.946Z,382.50
2018-06-01T09:44:07.133Z,399.38
2018-06-01T09:45:07.320Z,416.25
2018-06-01T09:46:07.502Z,433.13
2018-06-01T09:47:07.689Z,433.13
2018-06-01T09:48:07.869Z,433.13
2018-06-01T09:49:08.057Z,438.75
2018-06-01T09:50:08.240Z,433.13
2018-06-01T09:51:08.428Z,450.00
2018-06-01T09:52:08.612Z,466.88
2018-06-01T09:53:08.795Z,500.63
2018-06-01T09:54:08.989Z,500.63
2018-06-01T09:55:09.166Z,506.25
2018-06-01T09:56:09.350Z,506.25
2018-06-01T09:57:09.538Z,500.63
2018-06-01T09:58:09.738Z,506.25
2018-06-01T09:59:09.915Z,517.50
2018-06-01T10:00:10.106Z,528.75
2018-06-01T10:01:10.291Z,534.38
2018-06-01T10:02:10.484Z,545.63
2018-06-01T10:03:10.680Z,545.63
2018-06-01T10:04:10.853Z,545.63
2018-06-01T10:05:11.037Z,540.00
2018-06-01T10:06:11.227Z,528.75
2018-06-01T10:07:11.412Z,556.88
2018-06-01T10:08:11.595Z,523.13
2018-06-01T10:09:11.782Z,506.25
2018-06-01T10:10:11.977Z,478.13
2018-06-01T10:11:12.154Z,466.88
2018-06-01T10:12:12.339Z,489.38
2018-06-01T10:13:12.523Z,511.88
2018-06-01T10:14:12.708Z,523.13
2018-06-01T10:15:12.943Z,523.13
2018-06-01T10:16:13.069Z,511.88
2018-06-01T10:17:13.275Z,511.88
2018-06-01T10:18:13.465Z,511.88
2018-06-01T10:19:13.655Z,523.13
2018-06-01T10:20:13.830Z,551.25
2018-06-01T10:21:14.029Z,579.38
2018-06-01T10:22:14.212Z,585.00
2018-06-01T10:23:14.414Z,562.50
2018-06-01T10:24:14.578Z,579.38
2018-06-01T10:25:14.764Z,601.88
2018-06-01T10:26:14.941Z,562.50
2018-06-01T10:27:15.125Z,517.50
2018-06-01T10:28:15.317Z,495.00
2018-06-01T10:29:15.498Z,478.13
2018-06-01T10:30:15.679Z,455.63
2018-06-01T10:31:15.867Z,421.88
2018-06-01T10:32:16.056Z,416.25
2018-06-01T10:33:16.237Z,438.75
2018-06-01T10:34:16.423Z,478.13
2018-06-01T10:35:16.613Z,500.63
2018-06-01T10:36:16.797Z,511.88
2018-06-01T10:37:16.983Z,534.38
2018-06-01T10:38:17.167Z,624.38
2018-06-01T10:39:17.366Z,556.88
2018-06-01T10:40:17.545Z,579.38
2018-06-01T10:41:17.730Z,511.88
2018-06-01T10:42:18.335Z,545.63
2018-06-01T10:43:18.139Z,551.25
2018-06-01T10:44:18.317Z,517.50
2018-06-01T10:45:18.508Z,506.25
2018-06-01T10:47:18.859Z,455.63
2018-06-01T10:48:19.055Z,450.00
2018-06-01T10:49:19.235Z,444.38
2018-06-01T10:50:19.416Z,427.50
2018-06-01T10:51:19.614Z,410.63
2018-06-01T10:52:19.785Z,438.75
2018-06-01T10:53:19.972Z,438.75
2018-06-01T10:54:20.213Z,568.13
2018-06-01T10:55:20.347Z,495.00
2018-06-01T10:56:20.540Z,500.63
2018-06-01T10:57:20.729Z,641.25
2018-06-01T10:58:20.930Z,658.13
2018-06-01T10:59:21.106Z,641.25
2018-06-01T11:00:21.300Z,528.75
2018-06-01T11:01:21.483Z,601.88
2018-06-01T11:02:21.674Z,517.50
2018-06-01T11:03:21.920Z,433.13
2018-06-01T11:04:22.046Z,444.38
2018-06-01T11:05:22.220Z,455.63
2018-06-01T11:06:22.417Z,444.38
2018-06-01T11:07:22.578Z,590.63
2018-06-01T11:08:22.769Z,523.13
2018-06-01T11:09:22.960Z,528.75
2018-06-01T11:10:23.146Z,495.00
2018-06-01T11:11:23.339Z,607.50
2018-06-01T11:12:23.541Z,500.63
2018-06-01T11:13:23.730Z,421.88
2018-06-01T11:14:23.934Z,585.00
2018-06-01T11:15:24.117Z,585.00
2018-06-01T11:16:24.286Z,444.38
2018-06-01T11:17:24.477Z,523.13
2018-06-01T11:18:24.662Z,466.88
2018-06-01T11:19:24.863Z,613.13
2018-06-01T11:20:25.025Z,461.25
2018-06-01T11:21:25.311Z,438.75
2018-06-01T11:22:25.401Z,500.63
2018-06-01T11:23:25.586Z,472.50
2018-06-01T11:24:25.776Z,646.88
2018-06-01T11:25:25.965Z,466.88
2018-06-01T11:26:26.161Z,562.50
2018-06-01T11:27:26.351Z,624.38
2018-06-01T11:28:26.527Z,478.13
2018-06-01T11:29:26.732Z,438.75
2018-06-01T11:30:26.909Z,585.00
2018-06-01T11:31:27.100Z,438.75
2018-06-01T11:32:27.273Z,562.50
2018-06-01T11:33:27.467Z,573.75
2018-06-01T11:34:27.650Z,545.63
2018-06-01T11:35:27.844Z,511.88
2018-06-01T11:36:28.025Z,478.13
2018-06-01T11:37:28.206Z,298.13
2018-06-01T11:38:28.492Z,309.38
2018-06-01T11:39:28.583Z,326.25
2018-06-01T11:40:28.780Z,348.75
2018-06-01T11:41:28.959Z,433.13
2018-06-01T11:42:29.141Z,399.38
2018-06-01T11:43:29.332Z,382.50
2018-06-01T11:44:29.516Z,382.50
2018-06-01T11:45:29.714Z,382.50
2018-06-01T11:46:29.902Z,388.13
2018-06-01T11:47:30.091Z,388.13
2018-06-01T11:48:30.278Z,393.75
2018-06-01T11:49:30.456Z,528.75
2018-06-01T11:50:30.741Z,399.38
2018-06-01T11:51:30.833Z,371.25
2018-06-01T11:52:31.051Z,348.75
2018-06-01T11:53:31.203Z,326.25
2018-06-01T11:54:31.391Z,320.63
2018-06-01T11:55:31.579Z,483.75
2018-06-01T11:56:31.778Z,427.50
2018-06-01T11:57:31.946Z,393.75
2018-06-01T11:58:32.133Z,517.50
2018-06-01T11:59:32.331Z,534.38
2018-06-01T12:00:32.560Z,399.38
2018-06-01T12:01:32.689Z,495.00
2018-06-01T12:02:32.918Z,365.63
2018-06-01T12:03:33.061Z,466.88
2018-06-01T12:04:33.235Z,450.00
2018-06-01T12:05:33.423Z,455.63
2018-06-01T12:06:33.621Z,286.88
2018-06-01T12:07:33.800Z,292.50
2018-06-01T12:08:33.985Z,303.75
2018-06-01T12:09:34.174Z,421.88
2018-06-01T12:10:34.367Z,360.00
2018-06-01T12:11:34.551Z,478.13
2018-06-01T12:12:34.737Z,478.13
2018-06-01T12:13:35.778Z,320.63
2018-06-01T12:14:35.142Z,444.38
2018-06-01T12:15:35.317Z,286.88
2018-06-01T12:16:35.505Z,275.63
2018-06-01T12:17:35.747Z,275.63
2018-06-01T12:18:35.887Z,281.25
2018-06-01T12:19:36.066Z,281.25
2018-06-01T12:20:36.261Z,286.88
2018-06-01T12:21:36.431Z,303.75
2018-06-01T12:22:36.660Z,483.75
2018-06-01T12:23:36.808Z,495.00
2018-06-01T12:24:36.987Z,399.38
2018-06-01T12:25:37.166Z,556.88
2018-06-01T12:26:37.358Z,438.75
2018-06-01T12:27:37.555Z,461.25
2018-06-01T12:28:37.734Z,461.25
2018-06-01T12:29:37.921Z,551.25
2018-06-01T12:30:38.111Z,466.88
2018-06-01T12:31:38.300Z,523.13
2018-06-01T12:32:38.487Z,438.75
2018-06-01T12:33:38.679Z,393.75
2018-06-01T12:34:38.884Z,382.50
2018-06-01T12:35:39.034Z,382.50
2018-06-01T12:36:39.226Z,388.13
2018-06-01T12:37:39.412Z,371.25
2018-06-01T12:38:39.619Z,365.63
2018-06-01T12:39:39.783Z,343.13
2018-06-01T12:40:39.969Z,326.25
2018-06-01T12:41:40.162Z,309.38
2018-06-01T12:42:40.352Z,281.25
2018-06-01T12:43:40.525Z,264.38
2018-06-01T12:44:40.965Z,258.75
2018-06-01T12:45:40.902Z,253.13
2018-06-01T12:46:41.092Z,258.75
2018-06-01T12:47:41.284Z,275.63